sensor_id;sensor_type;location;lat;lon;timestamp;pressure;altitude;pressure_sealevel;temperature;humidity
36380;BME280;22411;53.016;18.632;2022-12-31T00:02:07;100216.00;;;4.24;100.00
36380;BME280;22411;53.016;18.632;2022-12-31T00:04:34;100215.31;;;4.20;100.00
36380;BME280;22411;53.016;18.632;2022-12-31T00:07:02;100211.00;;;4.20;100.00
36380;BME280;22411;53.016;18.632;2022-12-31T00:09:31;100204.75;;;4.26;100.00
36380;BME280;22411;53.016;18.632;2022-12-31T00:11:57;100194.56;;;4.25;100.00
36380;BME280;22411;53.016;18.632;2022-12-31T00:14:24;100196.19;;;4.27;100.00
36380;BME280;22411;53.016;18.632;2022-12-31T00:16:51;100190.53;;;4.38;100.00
36380;BME280;22411;53.016;18.632;2022-12-31T00:19:22;100187.38;;;4.33;100.00
36380;BME280;22411;53.016;18.632;2022-12-31T00:21:48;100172.72;;;4.35;100.00
36380;BME280;22411;53.016;18.632;2022-12-31T00:24:16;100169.75;;;4.42;100.00
36380;BME280;22411;53.016;18.632;2022-12-31T00:26:46;100173.09;;;4.44;100.00
36380;BME280;22411;53.016;18.632;2022-12-31T00:29:12;100157.63;;;4.46;100.00
36380;BME280;22411;53.016;18.632;2022-12-31T00:31:38;100148.88;;;4.50;100.00
36380;BME280;22411;53.016;18.632;2022-12-31T00:34:05;100161.50;;;4.55;100.00
36380;BME280;22411;53.016;18.632;2022-12-31T00:36:34;100161.41;;;4.56;100.00
36380;BME280;22411;53.016;18.632;2022-12-31T00:39:04;100162.00;;;4.61;100.00
36380;BME280;22411;53.016;18.632;2022-12-31T00:41:32;100166.09;;;4.65;100.00
36380;BME280;22411;53.016;18.632;2022-12-31T00:43:59;100164.19;;;4.69;100.00
36380;BME280;22411;53.016;18.632;2022-12-31T00:46:25;100177.63;;;4.74;100.00
36380;BME280;22411;53.016;18.632;2022-12-31T00:48:52;100187.91;;;4.74;100.00
36380;BME280;22411;53.016;18.632;2022-12-31T00:51:21;100179.53;;;4.70;100.00
36380;BME280;22411;53.016;18.632;2022-12-31T00:53:48;100177.19;;;4.66;100.00
36380;BME280;22411;53.016;18.632;2022-12-31T00:56:17;100177.03;;;4.69;100.00
36380;BME280;22411;53.016;18.632;2022-12-31T00:58:43;100188.97;;;4.70;100.00
36380;BME280;22411;53.016;18.632;2022-12-31T01:01:13;100170.19;;;4.69;100.00
36380;BME280;22411;53.016;18.632;2022-12-31T01:03:41;100176.97;;;4.70;100.00
36380;BME280;22411;53.016;18.632;2022-12-31T01:06:07;100185.28;;;4.76;100.00
36380;BME280;22411;53.016;18.632;2022-12-31T01:08:33;100182.09;;;4.70;100.00
36380;BME280;22411;53.016;18.632;2022-12-31T01:10:59;100156.56;;;4.67;100.00
36380;BME280;22411;53.016;18.632;2022-12-31T01:13:55;100152.22;;;4.69;100.00
36380;BME280;22411;53.016;18.632;2022-12-31T01:16:31;100162.31;;;4.72;100.00
36380;BME280;22411;53.016;18.632;2022-12-31T01:18:59;100136.63;;;4.72;100.00
36380;BME280;22411;53.016;18.632;2022-12-31T01:21:26;100140.13;;;4.71;100.00
36380;BME280;22411;53.016;18.632;2022-12-31T01:23:52;100135.34;;;4.81;100.00
36380;BME280;22411;53.016;18.632;2022-12-31T01:26:19;100138.84;;;4.80;100.00
36380;BME280;22411;53.016;18.632;2022-12-31T01:28:45;100138.53;;;4.86;100.00
36380;BME280;22411;53.016;18.632;2022-12-31T01:31:13;100144.31;;;4.90;100.00
36380;BME280;22411;53.016;18.632;2022-12-31T01:33:41;100156.88;;;4.96;100.00
36380;BME280;22411;53.016;18.632;2022-12-31T01:36:19;100163.56;;;4.98;100.00
36380;BME280;22411;53.016;18.632;2022-12-31T01:38:45;100167.66;;;5.03;100.00
36380;BME280;22411;53.016;18.632;2022-12-31T01:41:14;100161.69;;;5.02;100.00
36380;BME280;22411;53.016;18.632;2022-12-31T01:43:51;100163.03;;;5.09;100.00
36380;BME280;22411;53.016;18.632;2022-12-31T01:49:21;100154.44;;;5.26;100.00
36380;BME280;22411;53.016;18.632;2022-12-31T01:51:53;100158.66;;;5.27;100.00
36380;BME280;22411;53.016;18.632;2022-12-31T01:54:24;100157.19;;;5.23;100.00
36380;BME280;22411;53.016;18.632;2022-12-31T01:56:52;100150.09;;;5.28;100.00
36380;BME280;22411;53.016;18.632;2022-12-31T01:59:21;100170.31;;;5.34;100.00
36380;BME280;22411;53.016;18.632;2022-12-31T02:01:49;100153.88;;;5.37;100.00
36380;BME280;22411;53.016;18.632;2022-12-31T02:04:20;100154.56;;;5.40;100.00
36380;BME280;22411;53.016;18.632;2022-12-31T02:06:52;100159.72;;;5.40;100.00
36380;BME280;22411;53.016;18.632;2022-12-31T02:09:20;100162.78;;;5.47;100.00
36380;BME280;22411;53.016;18.632;2022-12-31T02:11:45;100156.00;;;5.46;100.00
36380;BME280;22411;53.016;18.632;2022-12-31T02:14:14;100159.63;;;5.42;100.00
36380;BME280;22411;53.016;18.632;2022-12-31T02:21:54;100173.16;;;5.45;100.00
36380;BME280;22411;53.016;18.632;2022-12-31T02:27:16;100172.72;;;5.53;100.00
36380;BME280;22411;53.016;18.632;2022-12-31T02:35:14;100166.88;;;5.67;100.00
36380;BME280;22411;53.016;18.632;2022-12-31T02:37:47;100171.94;;;5.68;100.00
36380;BME280;22411;53.016;18.632;2022-12-31T02:40:18;100171.00;;;5.69;100.00
36380;BME280;22411;53.016;18.632;2022-12-31T02:42:44;100170.19;;;5.69;100.00
36380;BME280;22411;53.016;18.632;2022-12-31T02:45:13;100158.81;;;5.73;100.00
36380;BME280;22411;53.016;18.632;2022-12-31T02:56:29;100155.34;;;5.90;100.00
36380;BME280;22411;53.016;18.632;2022-12-31T02:59:02;100143.84;;;5.97;100.00
36380;BME280;22411;53.016;18.632;2022-12-31T03:01:52;100147.06;;;6.00;100.00
36380;BME280;22411;53.016;18.632;2022-12-31T03:04:40;100152.06;;;6.03;100.00
36380;BME280;22411;53.016;18.632;2022-12-31T03:07:12;100148.41;;;6.08;100.00
36380;BME280;22411;53.016;18.632;2022-12-31T03:09:39;100149.63;;;6.16;100.00
36380;BME280;22411;53.016;18.632;2022-12-31T03:12:06;100137.25;;;6.23;100.00
36380;BME280;22411;53.016;18.632;2022-12-31T03:14:51;100149.69;;;6.31;100.00
36380;BME280;22411;53.016;18.632;2022-12-31T03:17:17;100149.91;;;6.42;100.00
36380;BME280;22411;53.016;18.632;2022-12-31T03:19:43;100148.00;;;6.45;100.00
36380;BME280;22411;53.016;18.632;2022-12-31T03:22:28;100140.06;;;6.48;100.00
36380;BME280;22411;53.016;18.632;2022-12-31T03:24:58;100146.00;;;6.50;100.00
36380;BME280;22411;53.016;18.632;2022-12-31T03:27:44;100143.97;;;6.55;100.00
36380;BME280;22411;53.016;18.632;2022-12-31T03:30:12;100143.22;;;6.53;100.00
36380;BME280;22411;53.016;18.632;2022-12-31T03:32:39;100143.72;;;6.60;100.00
36380;BME280;22411;53.016;18.632;2022-12-31T03:35:06;100148.69;;;6.63;100.00
36380;BME280;22411;53.016;18.632;2022-12-31T03:37:32;100145.84;;;6.68;100.00
36380;BME280;22411;53.016;18.632;2022-12-31T03:39:58;100151.38;;;6.76;100.00
36380;BME280;22411;53.016;18.632;2022-12-31T03:42:24;100138.50;;;6.76;100.00
36380;BME280;22411;53.016;18.632;2022-12-31T03:44:50;100160.50;;;6.81;100.00
36380;BME280;22411;53.016;18.632;2022-12-31T03:47:16;100152.03;;;6.79;100.00
36380;BME280;22411;53.016;18.632;2022-12-31T03:49:42;100162.06;;;6.84;100.00
36380;BME280;22411;53.016;18.632;2022-12-31T03:52:08;100161.06;;;6.87;100.00
36380;BME280;22411;53.016;18.632;2022-12-31T03:54:34;100159.06;;;6.92;100.00
36380;BME280;22411;53.016;18.632;2022-12-31T03:57:00;100169.44;;;6.90;100.00
36380;BME280;22411;53.016;18.632;2022-12-31T03:59:26;100161.78;;;6.89;100.00
36380;BME280;22411;53.016;18.632;2022-12-31T04:01:52;100165.88;;;6.93;100.00
36380;BME280;22411;53.016;18.632;2022-12-31T04:04:17;100151.13;;;6.95;100.00
36380;BME280;22411;53.016;18.632;2022-12-31T04:06:43;100155.19;;;6.99;100.00
36380;BME280;22411;53.016;18.632;2022-12-31T04:09:09;100149.88;;;7.02;100.00
36380;BME280;22411;53.016;18.632;2022-12-31T04:11:35;100154.25;;;7.00;100.00
36380;BME280;22411;53.016;18.632;2022-12-31T04:14:01;100160.34;;;6.99;100.00
36380;BME280;22411;53.016;18.632;2022-12-31T04:16:27;100156.13;;;6.98;100.00
36380;BME280;22411;53.016;18.632;2022-12-31T04:18:53;100152.63;;;6.99;100.00
36380;BME280;22411;53.016;18.632;2022-12-31T04:21:19;100165.41;;;7.00;100.00
36380;BME280;22411;53.016;18.632;2022-12-31T04:23:45;100160.72;;;7.07;100.00
36380;BME280;22411;53.016;18.632;2022-12-31T04:26:11;100184.09;;;7.04;100.00
36380;BME280;22411;53.016;18.632;2022-12-31T04:28:36;100158.44;;;7.02;100.00
36380;BME280;22411;53.016;18.632;2022-12-31T04:31:03;100162.44;;;7.06;100.00
36380;BME280;22411;53.016;18.632;2022-12-31T04:33:29;100156.66;;;7.03;100.00
36380;BME280;22411;53.016;18.632;2022-12-31T04:36:06;100153.34;;;7.01;100.00
36380;BME280;22411;53.016;18.632;2022-12-31T04:38:33;100157.41;;;7.05;100.00
36380;BME280;22411;53.016;18.632;2022-12-31T04:40:59;100155.59;;;7.07;100.00
36380;BME280;22411;53.016;18.632;2022-12-31T04:43:51;100155.22;;;7.13;100.00
36380;BME280;22411;53.016;18.632;2022-12-31T04:46:20;100145.06;;;7.10;100.00
36380;BME280;22411;53.016;18.632;2022-12-31T04:48:46;100151.53;;;7.17;100.00
36380;BME280;22411;53.016;18.632;2022-12-31T04:51:13;100151.16;;;7.23;100.00
36380;BME280;22411;53.016;18.632;2022-12-31T04:53:39;100157.03;;;7.25;100.00
36380;BME280;22411;53.016;18.632;2022-12-31T04:56:06;100156.59;;;7.33;100.00
36380;BME280;22411;53.016;18.632;2022-12-31T04:58:32;100157.88;;;7.40;100.00
36380;BME280;22411;53.016;18.632;2022-12-31T05:00:58;100160.34;;;7.42;100.00
36380;BME280;22411;53.016;18.632;2022-12-31T05:03:25;100158.59;;;7.42;100.00
36380;BME280;22411;53.016;18.632;2022-12-31T05:05:52;100154.09;;;7.46;100.00
36380;BME280;22411;53.016;18.632;2022-12-31T05:08:19;100162.47;;;7.49;100.00
36380;BME280;22411;53.016;18.632;2022-12-31T05:10:48;100158.53;;;7.44;100.00
36380;BME280;22411;53.016;18.632;2022-12-31T05:13:14;100161.00;;;7.45;100.00
36380;BME280;22411;53.016;18.632;2022-12-31T05:15:41;100164.41;;;7.46;100.00
36380;BME280;22411;53.016;18.632;2022-12-31T05:18:08;100163.31;;;7.50;100.00
36380;BME280;22411;53.016;18.632;2022-12-31T05:20:34;100176.66;;;7.56;100.00
36380;BME280;22411;53.016;18.632;2022-12-31T05:23:00;100161.19;;;7.56;100.00
36380;BME280;22411;53.016;18.632;2022-12-31T05:25:27;100158.59;;;7.56;100.00
36380;BME280;22411;53.016;18.632;2022-12-31T05:27:53;100159.78;;;7.65;100.00
36380;BME280;22411;53.016;18.632;2022-12-31T05:30:22;100181.25;;;7.66;100.00
36380;BME280;22411;53.016;18.632;2022-12-31T05:32:48;100176.00;;;7.67;100.00
36380;BME280;22411;53.016;18.632;2022-12-31T05:35:14;100169.91;;;7.68;100.00
36380;BME280;22411;53.016;18.632;2022-12-31T05:37:40;100174.44;;;7.65;100.00
36380;BME280;22411;53.016;18.632;2022-12-31T05:40:07;100180.06;;;7.57;100.00
36380;BME280;22411;53.016;18.632;2022-12-31T05:42:33;100166.97;;;7.60;100.00
36380;BME280;22411;53.016;18.632;2022-12-31T05:44:59;100174.63;;;7.62;100.00
36380;BME280;22411;53.016;18.632;2022-12-31T05:47:24;100175.44;;;7.62;100.00
36380;BME280;22411;53.016;18.632;2022-12-31T05:49:51;100174.72;;;7.60;100.00
36380;BME280;22411;53.016;18.632;2022-12-31T05:52:18;100172.75;;;7.64;100.00
36380;BME280;22411;53.016;18.632;2022-12-31T05:54:44;100182.19;;;7.65;100.00
36380;BME280;22411;53.016;18.632;2022-12-31T05:57:10;100202.81;;;7.65;100.00
36380;BME280;22411;53.016;18.632;2022-12-31T05:59:37;100210.56;;;7.65;100.00
36380;BME280;22411;53.016;18.632;2022-12-31T06:02:03;100202.72;;;7.66;100.00
36380;BME280;22411;53.016;18.632;2022-12-31T06:04:29;100200.47;;;7.74;100.00
36380;BME280;22411;53.016;18.632;2022-12-31T06:06:54;100201.13;;;7.78;100.00
36380;BME280;22411;53.016;18.632;2022-12-31T06:09:21;100204.75;;;7.75;100.00
36380;BME280;22411;53.016;18.632;2022-12-31T06:11:47;100201.50;;;7.72;100.00
36380;BME280;22411;53.016;18.632;2022-12-31T06:14:13;100214.13;;;7.76;100.00
36380;BME280;22411;53.016;18.632;2022-12-31T06:16:39;100201.97;;;7.78;100.00
36380;BME280;22411;53.016;18.632;2022-12-31T06:19:08;100201.84;;;7.80;100.00
36380;BME280;22411;53.016;18.632;2022-12-31T06:21:34;100208.88;;;7.78;100.00
36380;BME280;22411;53.016;18.632;2022-12-31T06:24:00;100206.47;;;7.75;100.00
36380;BME280;22411;53.016;18.632;2022-12-31T06:26:26;100198.44;;;7.79;100.00
36380;BME280;22411;53.016;18.632;2022-12-31T06:28:53;100204.16;;;7.84;100.00
36380;BME280;22411;53.016;18.632;2022-12-31T06:31:19;100195.69;;;7.82;100.00
36380;BME280;22411;53.016;18.632;2022-12-31T06:33:45;100201.69;;;7.83;100.00
36380;BME280;22411;53.016;18.632;2022-12-31T06:36:15;100202.50;;;7.83;100.00
36380;BME280;22411;53.016;18.632;2022-12-31T06:38:44;100208.38;;;7.85;100.00
36380;BME280;22411;53.016;18.632;2022-12-31T06:41:12;100215.13;;;7.88;100.00
36380;BME280;22411;53.016;18.632;2022-12-31T06:43:39;100223.78;;;7.87;100.00
36380;BME280;22411;53.016;18.632;2022-12-31T06:46:07;100209.69;;;7.93;100.00
36380;BME280;22411;53.016;18.632;2022-12-31T06:48:34;100213.91;;;7.94;100.00
36380;BME280;22411;53.016;18.632;2022-12-31T06:51:26;100212.06;;;7.96;100.00
36380;BME280;22411;53.016;18.632;2022-12-31T06:53:52;100217.97;;;7.98;100.00
36380;BME280;22411;53.016;18.632;2022-12-31T06:56:23;100221.75;;;7.92;100.00
36380;BME280;22411;53.016;18.632;2022-12-31T06:58:50;100218.06;;;7.96;100.00
36380;BME280;22411;53.016;18.632;2022-12-31T07:09:39;100227.84;;;7.91;100.00
36380;BME280;22411;53.016;18.632;2022-12-31T07:18:20;100237.03;;;7.95;100.00
36380;BME280;22411;53.016;18.632;2022-12-31T07:20:48;100222.94;;;8.01;100.00
36380;BME280;22411;53.016;18.632;2022-12-31T07:23:14;100218.78;;;7.98;100.00
36380;BME280;22411;53.016;18.632;2022-12-31T07:25:50;100226.66;;;7.97;100.00
36380;BME280;22411;53.016;18.632;2022-12-31T07:31:30;100222.56;;;8.07;100.00
36380;BME280;22411;53.016;18.632;2022-12-31T07:34:09;100226.88;;;8.06;100.00
36380;BME280;22411;53.016;18.632;2022-12-31T07:36:54;100213.16;;;8.06;100.00
36380;BME280;22411;53.016;18.632;2022-12-31T07:39:30;100219.13;;;8.06;100.00
36380;BME280;22411;53.016;18.632;2022-12-31T07:42:23;100228.34;;;8.10;100.00
36380;BME280;22411;53.016;18.632;2022-12-31T07:45:40;100234.69;;;8.19;100.00
36380;BME280;22411;53.016;18.632;2022-12-31T07:48:24;100219.00;;;8.22;100.00
36380;BME280;22411;53.016;18.632;2022-12-31T07:50:52;100210.97;;;8.27;100.00
36380;BME280;22411;53.016;18.632;2022-12-31T07:53:22;100219.91;;;8.35;100.00
36380;BME280;22411;53.016;18.632;2022-12-31T07:55:58;100215.94;;;8.44;100.00
36380;BME280;22411;53.016;18.632;2022-12-31T07:58:36;100211.75;;;8.56;100.00
36380;BME280;22411;53.016;18.632;2022-12-31T08:01:10;100221.66;;;8.62;100.00
36380;BME280;22411;53.016;18.632;2022-12-31T08:03:43;100226.94;;;8.60;100.00
36380;BME280;22411;53.016;18.632;2022-12-31T08:06:22;100230.59;;;8.71;100.00
36380;BME280;22411;53.016;18.632;2022-12-31T08:08:52;100226.84;;;8.75;100.00
36380;BME280;22411;53.016;18.632;2022-12-31T08:14:02;100230.72;;;8.82;100.00
36380;BME280;22411;53.016;18.632;2022-12-31T08:16:28;100220.56;;;8.79;100.00
36380;BME280;22411;53.016;18.632;2022-12-31T08:18:57;100219.22;;;8.73;100.00
36380;BME280;22411;53.016;18.632;2022-12-31T08:25:07;100218.50;;;8.71;100.00
36380;BME280;22411;53.016;18.632;2022-12-31T08:30:20;100246.91;;;8.71;100.00
36380;BME280;22411;53.016;18.632;2022-12-31T08:39:12;100233.06;;;8.72;100.00
36380;BME280;22411;53.016;18.632;2022-12-31T08:41:45;100245.41;;;8.81;100.00
36380;BME280;22411;53.016;18.632;2022-12-31T08:47:59;100235.59;;;8.86;100.00
36380;BME280;22411;53.016;18.632;2022-12-31T08:50:18;100219.34;;;8.84;100.00
36380;BME280;22411;53.016;18.632;2022-12-31T08:52:46;100235.78;;;8.83;100.00
36380;BME280;22411;53.016;18.632;2022-12-31T08:55:14;100230.19;;;8.89;100.00
36380;BME280;22411;53.016;18.632;2022-12-31T09:00:17;100228.47;;;9.03;100.00
36380;BME280;22411;53.016;18.632;2022-12-31T09:14:23;100210.69;;;9.24;100.00
36380;BME280;22411;53.016;18.632;2022-12-31T09:19:29;100212.88;;;9.30;100.00
36380;BME280;22411;53.016;18.632;2022-12-31T09:21:57;100208.31;;;9.33;100.00
36380;BME280;22411;53.016;18.632;2022-12-31T09:24:25;100192.38;;;9.39;100.00
36380;BME280;22411;53.016;18.632;2022-12-31T09:31:58;100185.53;;;9.51;100.00
36380;BME280;22411;53.016;18.632;2022-12-31T09:35:12;100194.25;;;9.50;100.00
36380;BME280;22411;53.016;18.632;2022-12-31T09:39:55;100194.31;;;9.61;100.00
36380;BME280;22411;53.016;18.632;2022-12-31T09:42:55;100172.38;;;9.67;100.00
36380;BME280;22411;53.016;18.632;2022-12-31T09:48:50;100167.38;;;9.77;100.00
36380;BME280;22411;53.016;18.632;2022-12-31T10:26:05;100115.38;;;9.56;100.00
36380;BME280;22411;53.016;18.632;2022-12-31T10:31:14;100094.75;;;9.67;100.00
36380;BME280;22411;53.016;18.632;2022-12-31T10:33:44;100099.97;;;9.78;100.00
36380;BME280;22411;53.016;18.632;2022-12-31T10:36:19;100095.34;;;9.94;100.00
36380;BME280;22411;53.016;18.632;2022-12-31T10:44:32;100090.38;;;10.15;100.00
36380;BME280;22411;53.016;18.632;2022-12-31T11:03:57;100053.69;;;10.90;100.00
36380;BME280;22411;53.016;18.632;2022-12-31T11:32:15;100047.22;;;12.05;100.00
36380;BME280;22411;53.016;18.632;2022-12-31T11:38:14;100048.72;;;11.87;100.00
36380;BME280;22411;53.016;18.632;2022-12-31T11:50:27;100036.34;;;11.68;100.00
36380;BME280;22411;53.016;18.632;2022-12-31T11:56:11;100042.00;;;11.73;100.00
36380;BME280;22411;53.016;18.632;2022-12-31T11:58:45;100040.34;;;11.83;100.00
36380;BME280;22411;53.016;18.632;2022-12-31T12:04:17;100039.41;;;12.05;100.00
36380;BME280;22411;53.016;18.632;2022-12-31T12:06:43;100026.22;;;12.18;100.00
36380;BME280;22411;53.016;18.632;2022-12-31T12:09:14;100037.66;;;12.26;100.00
36380;BME280;22411;53.016;18.632;2022-12-31T12:11:43;100026.88;;;12.31;100.00
36380;BME280;22411;53.016;18.632;2022-12-31T12:14:20;100013.59;;;12.24;100.00
36380;BME280;22411;53.016;18.632;2022-12-31T12:16:46;100011.94;;;12.23;100.00
36380;BME280;22411;53.016;18.632;2022-12-31T12:19:17;100011.44;;;12.29;100.00
36380;BME280;22411;53.016;18.632;2022-12-31T12:21:45;100004.44;;;12.30;100.00
36380;BME280;22411;53.016;18.632;2022-12-31T12:24:26;99995.78;;;12.20;100.00
36380;BME280;22411;53.016;18.632;2022-12-31T12:26:53;99989.84;;;12.18;100.00
36380;BME280;22411;53.016;18.632;2022-12-31T12:29:33;99991.84;;;12.25;100.00
36380;BME280;22411;53.016;18.632;2022-12-31T12:32:15;99985.31;;;12.31;100.00
36380;BME280;22411;53.016;18.632;2022-12-31T12:34:42;99986.69;;;12.35;100.00
36380;BME280;22411;53.016;18.632;2022-12-31T12:42:51;99995.84;;;12.60;100.00
36380;BME280;22411;53.016;18.632;2022-12-31T12:45:26;99996.16;;;12.67;100.00
36380;BME280;22411;53.016;18.632;2022-12-31T12:47:56;100019.56;;;12.67;100.00
36380;BME280;22411;53.016;18.632;2022-12-31T12:50:33;100028.75;;;12.71;100.00
36380;BME280;22411;53.016;18.632;2022-12-31T12:53:11;100001.66;;;12.73;100.00
36380;BME280;22411;53.016;18.632;2022-12-31T12:58:40;99990.72;;;12.79;100.00
36380;BME280;22411;53.016;18.632;2022-12-31T13:04:40;99995.28;;;12.87;100.00
36380;BME280;22411;53.016;18.632;2022-12-31T13:12:55;99990.41;;;13.03;100.00
36380;BME280;22411;53.016;18.632;2022-12-31T13:23:59;99998.03;;;13.36;100.00
36380;BME280;22411;53.016;18.632;2022-12-31T13:29:01;99994.06;;;13.41;100.00
36380;BME280;22411;53.016;18.632;2022-12-31T13:31:35;99996.81;;;13.40;100.00
36380;BME280;22411;53.016;18.632;2022-12-31T13:34:12;99999.94;;;13.43;100.00
36380;BME280;22411;53.016;18.632;2022-12-31T13:36:43;99996.78;;;13.49;100.00
36380;BME280;22411;53.016;18.632;2022-12-31T13:39:16;100001.06;;;13.50;100.00
36380;BME280;22411;53.016;18.632;2022-12-31T13:41:55;100011.19;;;13.53;100.00
36380;BME280;22411;53.016;18.632;2022-12-31T13:44:50;100013.13;;;13.61;100.00
36380;BME280;22411;53.016;18.632;2022-12-31T13:47:42;100022.28;;;13.65;100.00
36380;BME280;22411;53.016;18.632;2022-12-31T13:50:18;100019.16;;;13.62;100.00
36380;BME280;22411;53.016;18.632;2022-12-31T13:52:59;100019.81;;;13.54;100.00
36380;BME280;22411;53.016;18.632;2022-12-31T13:55:36;100023.25;;;13.54;100.00
36380;BME280;22411;53.016;18.632;2022-12-31T14:06:37;100032.44;;;13.58;100.00
36380;BME280;22411;53.016;18.632;2022-12-31T14:09:11;100052.59;;;13.56;100.00
36380;BME280;22411;53.016;18.632;2022-12-31T14:12:04;100044.78;;;13.56;100.00
36380;BME280;22411;53.016;18.632;2022-12-31T14:17:07;100036.53;;;13.51;100.00
36380;BME280;22411;53.016;18.632;2022-12-31T14:22:26;100043.53;;;13.51;100.00
36380;BME280;22411;53.016;18.632;2022-12-31T14:24:58;100044.34;;;13.51;100.00
36380;BME280;22411;53.016;18.632;2022-12-31T14:27:30;100073.53;;;13.45;100.00
36380;BME280;22411;53.016;18.632;2022-12-31T14:38:43;100052.16;;;13.51;100.00
36380;BME280;22411;53.016;18.632;2022-12-31T14:50:15;100073.38;;;13.37;100.00
36380;BME280;22411;53.016;18.632;2022-12-31T14:53:06;100064.88;;;13.35;100.00
36380;BME280;22411;53.016;18.632;2022-12-31T14:55:36;100061.72;;;13.31;100.00
36380;BME280;22411;53.016;18.632;2022-12-31T14:58:40;100059.34;;;13.28;100.00
36380;BME280;22411;53.016;18.632;2022-12-31T15:03:44;100064.59;;;13.38;100.00
36380;BME280;22411;53.016;18.632;2022-12-31T15:06:34;100064.59;;;13.38;100.00
36380;BME280;22411;53.016;18.632;2022-12-31T15:09:09;100072.41;;;13.38;100.00
36380;BME280;22411;53.016;18.632;2022-12-31T15:12:02;100075.44;;;13.43;100.00
36380;BME280;22411;53.016;18.632;2022-12-31T15:17:25;100084.75;;;13.46;100.00
36380;BME280;22411;53.016;18.632;2022-12-31T15:23:00;100091.75;;;13.45;100.00
36380;BME280;22411;53.016;18.632;2022-12-31T15:25:37;100096.25;;;13.43;100.00
36380;BME280;22411;53.016;18.632;2022-12-31T15:28:29;100080.25;;;13.48;100.00
36380;BME280;22411;53.016;18.632;2022-12-31T15:30:54;100079.66;;;13.44;100.00
36380;BME280;22411;53.016;18.632;2022-12-31T15:36:17;100078.31;;;13.40;100.00
36380;BME280;22411;53.016;18.632;2022-12-31T15:38:44;100078.44;;;13.39;100.00
36380;BME280;22411;53.016;18.632;2022-12-31T15:44:07;100084.44;;;13.39;100.00
36380;BME280;22411;53.016;18.632;2022-12-31T15:46:38;100088.34;;;13.45;100.00
36380;BME280;22411;53.016;18.632;2022-12-31T15:49:24;100092.41;;;13.38;100.00
36380;BME280;22411;53.016;18.632;2022-12-31T15:52:01;100080.75;;;13.32;100.00
36380;BME280;22411;53.016;18.632;2022-12-31T15:54:41;100100.06;;;13.29;100.00
36380;BME280;22411;53.016;18.632;2022-12-31T15:57:25;100085.69;;;13.35;100.00
36380;BME280;22411;53.016;18.632;2022-12-31T16:00:05;100099.81;;;13.42;100.00
36380;BME280;22411;53.016;18.632;2022-12-31T16:02:32;100085.00;;;13.33;100.00
36380;BME280;22411;53.016;18.632;2022-12-31T16:04:58;100099.81;;;13.42;100.00
36380;BME280;22411;53.016;18.632;2022-12-31T16:07:26;100089.94;;;13.36;100.00
36380;BME280;22411;53.016;18.632;2022-12-31T16:09:56;100090.38;;;13.41;100.00
36380;BME280;22411;53.016;18.632;2022-12-31T16:12:30;100095.16;;;13.36;100.00
36380;BME280;22411;53.016;18.632;2022-12-31T16:15:01;100097.75;;;13.36;100.00
36380;BME280;22411;53.016;18.632;2022-12-31T16:17:30;100112.94;;;13.31;100.00
36380;BME280;22411;53.016;18.632;2022-12-31T16:19:57;100102.53;;;13.31;100.00
36380;BME280;22411;53.016;18.632;2022-12-31T16:24:58;100100.34;;;13.36;100.00
36380;BME280;22411;53.016;18.632;2022-12-31T16:27:27;100108.97;;;13.37;100.00
36380;BME280;22411;53.016;18.632;2022-12-31T16:30:03;100098.31;;;13.40;100.00
36380;BME280;22411;53.016;18.632;2022-12-31T16:32:37;100099.41;;;13.37;100.00
36380;BME280;22411;53.016;18.632;2022-12-31T16:35:25;100114.44;;;13.24;100.00
36380;BME280;22411;53.016;18.632;2022-12-31T16:38:12;100110.28;;;13.21;100.00
36380;BME280;22411;53.016;18.632;2022-12-31T16:40:43;100097.03;;;13.24;100.00
36380;BME280;22411;53.016;18.632;2022-12-31T16:43:38;100106.47;;;13.25;100.00
36380;BME280;22411;53.016;18.632;2022-12-31T16:48:33;100101.78;;;13.19;100.00
36380;BME280;22411;53.016;18.632;2022-12-31T16:51:00;100108.94;;;13.27;100.00
36380;BME280;22411;53.016;18.632;2022-12-31T16:53:27;100102.34;;;13.23;100.00
36380;BME280;22411;53.016;18.632;2022-12-31T16:56:01;100107.69;;;13.21;100.00
36380;BME280;22411;53.016;18.632;2022-12-31T16:58:36;100132.22;;;13.28;100.00
36380;BME280;22411;53.016;18.632;2022-12-31T17:01:15;100124.75;;;13.35;100.00
36380;BME280;22411;53.016;18.632;2022-12-31T17:03:47;100130.22;;;13.42;100.00
36380;BME280;22411;53.016;18.632;2022-12-31T17:06:17;100130.38;;;13.40;100.00
36380;BME280;22411;53.016;18.632;2022-12-31T17:11:42;100148.47;;;13.42;100.00
36380;BME280;22411;53.016;18.632;2022-12-31T17:16:43;100146.69;;;13.42;100.00
36380;BME280;22411;53.016;18.632;2022-12-31T17:22:00;100145.59;;;13.45;100.00
36380;BME280;22411;53.016;18.632;2022-12-31T17:24:27;100158.91;;;13.51;100.00
36380;BME280;22411;53.016;18.632;2022-12-31T17:26:54;100150.00;;;13.54;100.00
36380;BME280;22411;53.016;18.632;2022-12-31T17:29:21;100147.00;;;13.58;100.00
36380;BME280;22411;53.016;18.632;2022-12-31T17:32:08;100146.03;;;13.59;100.00
36380;BME280;22411;53.016;18.632;2022-12-31T17:34:50;100146.75;;;13.62;100.00
36380;BME280;22411;53.016;18.632;2022-12-31T17:37:19;100152.38;;;13.67;100.00
36380;BME280;22411;53.016;18.632;2022-12-31T17:39:49;100148.13;;;13.66;100.00
36380;BME280;22411;53.016;18.632;2022-12-31T17:42:35;100145.53;;;13.66;100.00